createdAt,value
2022-09-15T00:01:58.883Z,30.00
2022-09-15T00:04:25.262Z,30.15
2022-09-15T00:06:51.723Z,29.99
2022-09-15T00:09:18.145Z,30.15
2022-09-15T00:11:44.490Z,30.32
2022-09-15T00:14:10.885Z,30.01
2022-09-15T00:16:37.297Z,30.23
2022-09-15T00:19:03.700Z,29.63
2022-09-15T00:21:30.068Z,30.30
2022-09-15T00:23:56.459Z,30.50
2022-09-15T00:26:22.863Z,30.23
2022-09-15T00:28:49.375Z,30.11
2022-09-15T00:31:15.825Z,30.22
2022-09-15T00:33:42.192Z,29.86
2022-09-15T00:36:08.619Z,29.79
2022-09-15T00:38:34.942Z,30.03
2022-09-15T00:41:01.308Z,29.79
2022-09-15T00:43:27.667Z,29.92
2022-09-15T00:45:54.040Z,29.87
2022-09-15T00:48:20.427Z,30.13
2022-09-15T00:50:46.865Z,30.17
2022-09-15T00:53:13.194Z,30.22
2022-09-15T00:55:39.563Z,29.97
2022-09-15T00:58:05.983Z,29.93
2022-09-15T01:00:32.318Z,30.21
2022-09-15T01:02:58.682Z,29.36
2022-09-15T01:05:25.052Z,30.73
2022-09-15T01:07:51.384Z,30.26
2022-09-15T01:10:17.726Z,30.16
2022-09-15T01:12:44.232Z,29.99
2022-09-15T01:15:10.578Z,30.00
2022-09-15T01:17:36.913Z,29.67
2022-09-15T01:20:03.389Z,29.79
2022-09-15T01:22:29.822Z,29.81
2022-09-15T01:24:56.252Z,30.10
2022-09-15T01:27:41.179Z,30.11
2022-09-15T01:30:08.694Z,30.09
2022-09-15T01:32:35.180Z,29.91
2022-09-15T01:35:01.533Z,29.97
2022-09-15T01:37:27.888Z,29.99
2022-09-15T01:39:54.329Z,29.92
2022-09-15T01:42:20.730Z,29.92
2022-09-15T01:44:47.065Z,29.42
2022-09-15T01:47:13.426Z,30.60
2022-09-15T01:49:39.762Z,30.63
2022-09-15T01:52:06.201Z,30.44
2022-09-15T01:54:32.561Z,30.03
2022-09-15T01:56:58.965Z,29.90
2022-09-15T01:59:25.336Z,29.88
2022-09-15T02:01:51.872Z,29.98
2022-09-15T02:04:18.332Z,29.73
2022-09-15T02:06:44.677Z,29.92
2022-09-15T02:09:11.972Z,29.99
2022-09-15T02:11:38.323Z,29.76
2022-09-15T02:14:04.701Z,29.87
2022-09-15T02:16:31.209Z,29.66
2022-09-15T02:18:57.763Z,29.97
2022-09-15T02:21:24.109Z,29.85
2022-09-15T02:23:50.707Z,29.73
2022-09-15T02:26:17.119Z,29.22
2022-09-15T02:28:43.514Z,30.51
2022-09-15T02:31:10.079Z,30.14
2022-09-15T02:33:36.459Z,29.95
2022-09-15T02:36:02.803Z,29.86
2022-09-15T02:38:29.303Z,29.55
2022-09-15T02:40:55.656Z,29.78
2022-09-15T02:43:22.014Z,29.59
2022-09-15T02:45:48.440Z,29.79
2022-09-15T02:48:14.802Z,29.61
2022-09-15T02:50:41.183Z,29.57
2022-09-15T02:53:07.562Z,29.84
2022-09-15T02:55:33.925Z,29.88
2022-09-15T02:58:00.280Z,29.61
2022-09-15T03:00:26.711Z,29.60
2022-09-15T03:02:53.078Z,29.67
2022-09-15T03:05:19.461Z,29.45
2022-09-15T03:07:45.853Z,28.91
2022-09-15T03:10:12.228Z,30.55
2022-09-15T03:12:38.580Z,30.10
2022-09-15T03:15:05.040Z,29.71
2022-09-15T03:17:31.359Z,29.61
2022-09-15T03:19:57.721Z,29.46
2022-09-15T03:22:24.153Z,29.22
2022-09-15T03:24:50.508Z,29.30
2022-09-15T03:27:16.848Z,29.48
2022-09-15T03:29:43.275Z,29.37
2022-09-15T03:32:09.608Z,29.27
2022-09-15T03:34:35.966Z,29.34
2022-09-15T03:37:02.349Z,29.29
2022-09-15T03:39:28.726Z,29.56
2022-09-15T03:41:55.060Z,29.42
2022-09-15T03:44:21.425Z,29.65
2022-09-15T03:46:47.789Z,29.77
2022-09-15T03:49:14.150Z,29.22
2022-09-15T03:51:40.506Z,30.41
2022-09-15T03:54:06.897Z,29.86
2022-09-15T03:56:33.255Z,29.53
2022-09-15T03:59:06.812Z,29.65
2022-09-15T04:01:33.227Z,29.61
2022-09-15T04:03:59.773Z,29.08
2022-09-15T04:06:26.188Z,29.06
2022-09-15T04:08:52.666Z,28.99
2022-09-15T04:11:19.205Z,29.38
2022-09-15T04:13:45.635Z,29.16
2022-09-15T04:16:12.197Z,29.19
2022-09-15T04:18:38.639Z,29.29
2022-09-15T04:21:04.964Z,29.18
2022-09-15T04:23:31.295Z,29.18
2022-09-15T04:25:57.690Z,29.59
2022-09-15T04:28:24.029Z,29.05
2022-09-15T04:30:50.360Z,30.52
2022-09-15T04:33:16.832Z,30.34
2022-09-15T04:35:43.231Z,29.51
2022-09-15T04:38:09.562Z,29.74
2022-09-15T04:40:35.920Z,29.67
2022-09-15T04:43:02.262Z,29.25
2022-09-15T04:45:28.665Z,29.41
2022-09-15T04:47:55.032Z,29.54
2022-09-15T04:50:21.367Z,29.70
2022-09-15T04:52:47.747Z,29.38
2022-09-15T04:55:15.130Z,29.89
2022-09-15T04:57:41.505Z,29.84
2022-09-15T05:00:07.848Z,29.78
2022-09-15T05:02:34.269Z,29.33
2022-09-15T05:05:00.637Z,29.73
2022-09-15T05:07:26.991Z,29.63
2022-09-15T05:09:53.379Z,30.84
2022-09-15T05:12:19.709Z,29.89
2022-09-15T05:14:46.056Z,29.50
2022-09-15T05:17:12.525Z,29.47
2022-09-15T05:19:38.846Z,29.36
2022-09-15T05:22:05.264Z,29.40
2022-09-15T05:24:31.634Z,29.70
2022-09-15T05:26:58.170Z,29.45
2022-09-15T05:29:24.530Z,29.47
2022-09-15T05:31:51.099Z,29.59
2022-09-15T05:34:17.491Z,29.68
2022-09-15T05:36:43.814Z,29.70
2022-09-15T05:39:12.426Z,29.72
2022-09-15T05:41:39.142Z,29.74
2022-09-15T05:44:05.463Z,30.88
2022-09-15T05:46:32.021Z,31.27
2022-09-15T05:48:58.410Z,30.20
2022-09-15T05:51:24.782Z,30.27
2022-09-15T05:53:51.366Z,30.17
2022-09-15T05:56:17.836Z,30.05
2022-09-15T05:58:44.179Z,30.47
2022-09-15T06:01:10.621Z,30.39
2022-09-15T06:03:37.026Z,30.75
2022-09-15T06:06:03.372Z,30.39
2022-09-15T06:08:29.754Z,30.68
2022-09-15T06:10:56.108Z,30.67
2022-09-15T06:13:22.437Z,30.67
2022-09-15T06:15:48.851Z,31.20
2022-09-15T06:18:15.212Z,32.11
2022-09-15T06:20:41.541Z,31.17
2022-09-15T06:23:07.945Z,30.88
2022-09-15T06:25:34.692Z,30.98
2022-09-15T06:28:01.057Z,30.86
2022-09-15T06:30:27.508Z,30.98
2022-09-15T06:32:53.852Z,31.40
2022-09-15T06:35:20.218Z,31.35
2022-09-15T06:37:46.804Z,31.30
2022-09-15T06:40:13.407Z,31.69
2022-09-15T06:42:39.935Z,31.70
2022-09-15T06:45:06.627Z,31.04
2022-09-15T06:47:33.010Z,33.27
2022-09-15T06:49:59.540Z,31.83
2022-09-15T06:52:26.024Z,31.42
2022-09-15T06:54:52.357Z,31.16
2022-09-15T06:57:18.965Z,31.37
2022-09-15T06:59:45.370Z,31.50
2022-09-15T07:02:11.966Z,31.76
2022-09-15T07:07:40.898Z,31.31
2022-09-15T07:10:07.386Z,31.53
2022-09-15T07:12:33.895Z,31.79
2022-09-15T07:15:00.405Z,31.97
2022-09-15T07:17:26.763Z,32.67
2022-09-15T07:19:53.248Z,31.93
2022-09-15T07:22:19.801Z,31.89
2022-09-15T07:24:46.278Z,31.90
2022-09-15T07:27:12.692Z,31.95
2022-09-15T07:29:39.046Z,31.88
2022-09-15T07:32:05.662Z,32.12
2022-09-15T07:34:32.354Z,31.79
2022-09-15T07:36:58.738Z,31.83
2022-09-15T07:39:25.109Z,32.06
2022-09-15T07:41:51.508Z,32.06
2022-09-15T07:44:17.896Z,33.05
2022-09-15T07:46:44.287Z,33.52
2022-09-15T07:49:13.158Z,32.64
2022-09-15T07:51:39.577Z,32.04
2022-09-15T07:54:06.060Z,32.31
2022-09-15T07:56:32.640Z,32.28
2022-09-15T07:59:01.998Z,32.08
2022-09-15T08:01:28.421Z,32.13
2022-09-15T08:03:55.267Z,32.30
2022-09-15T08:06:21.609Z,32.30
2022-09-15T08:08:48.009Z,32.14
2022-09-15T08:11:18.431Z,31.88
2022-09-15T08:13:45.481Z,33.67
2022-09-15T08:16:11.960Z,32.77
2022-09-15T08:18:40.331Z,31.94
2022-09-15T08:21:06.744Z,31.95
2022-09-15T08:23:33.122Z,32.07
2022-09-15T08:26:00.067Z,31.84
2022-09-15T08:28:26.508Z,31.95
2022-09-15T08:30:53.934Z,32.03
2022-09-15T08:33:20.734Z,31.73
2022-09-15T08:35:47.135Z,32.17
2022-09-15T08:38:13.654Z,31.94
2022-09-15T08:40:40.141Z,31.92
2022-09-15T08:43:06.739Z,32.77
2022-09-15T08:45:33.148Z,32.64
2022-09-15T08:47:59.923Z,32.22
2022-09-15T08:50:26.248Z,32.00
2022-09-15T08:52:52.600Z,31.83
2022-09-15T08:55:18.981Z,31.70
2022-09-15T08:57:45.408Z,32.00
2022-09-15T09:00:11.787Z,32.47
2022-09-15T09:02:38.297Z,32.30
2022-09-15T09:05:04.740Z,32.56
2022-09-15T09:07:31.262Z,32.47
2022-09-15T09:09:57.789Z,32.37
2022-09-15T09:12:24.126Z,33.39
2022-09-15T09:14:50.478Z,34.29
2022-09-15T09:17:17.007Z,33.32
2022-09-15T09:19:43.368Z,32.72
2022-09-15T09:22:09.818Z,32.71
2022-09-15T09:24:36.208Z,32.53
2022-09-15T09:27:02.590Z,32.35
2022-09-15T09:29:28.962Z,32.42
2022-09-15T09:31:55.370Z,32.17
2022-09-15T09:34:21.723Z,32.23
2022-09-15T09:36:48.078Z,32.32
2022-09-15T09:39:14.781Z,32.63
2022-09-15T09:41:41.200Z,32.55
2022-09-15T09:44:07.929Z,33.58
2022-09-15T09:46:34.424Z,32.84
2022-09-15T09:49:00.926Z,32.80
2022-09-15T09:51:27.368Z,32.57
2022-09-15T09:53:54.295Z,32.37
2022-09-15T09:56:20.848Z,32.32
2022-09-15T09:58:47.523Z,32.28
2022-09-15T10:01:14.095Z,32.62
2022-09-15T10:03:40.471Z,32.77
2022-09-15T10:06:06.846Z,32.84
2022-09-15T10:08:33.228Z,32.90
2022-09-15T10:10:59.632Z,32.52
2022-09-15T10:13:25.999Z,34.12
2022-09-15T10:15:52.410Z,33.35
2022-09-15T10:18:18.963Z,32.95
2022-09-15T10:20:45.455Z,32.69
2022-09-15T10:23:11.938Z,32.85
2022-09-15T10:26:00.164Z,32.77
2022-09-15T10:28:24.891Z,32.75
2022-09-15T10:30:51.304Z,32.83
2022-09-15T10:33:17.904Z,32.30
2022-09-15T10:35:44.505Z,32.51
2022-09-15T10:38:10.866Z,32.63
2022-09-15T10:40:40.292Z,33.16
2022-09-15T10:43:06.716Z,34.08
2022-09-15T10:45:33.310Z,33.01
2022-09-15T10:47:59.725Z,32.61
2022-09-15T10:50:26.325Z,32.81
2022-09-15T10:52:52.783Z,32.38
2022-09-15T10:55:31.876Z,32.20
2022-09-15T10:58:05.664Z,32.83
2022-09-15T11:00:32.177Z,32.72
2022-09-15T11:02:58.605Z,32.50
2022-09-15T11:05:25.016Z,32.83
2022-09-15T11:07:51.447Z,32.45
2022-09-15T11:10:17.854Z,33.14
2022-09-15T11:12:44.260Z,33.46
2022-09-15T11:15:10.724Z,32.83
2022-09-15T11:17:37.084Z,32.04
2022-09-15T11:20:03.516Z,32.29
2022-09-15T11:22:29.851Z,32.73
2022-09-15T11:24:56.226Z,32.78
2022-09-15T11:27:23.037Z,32.71
2022-09-15T11:29:49.739Z,33.00
2022-09-15T11:32:16.115Z,32.68
2022-09-15T11:34:42.490Z,33.10
2022-09-15T11:37:08.838Z,32.70
2022-09-15T11:39:35.191Z,32.32
2022-09-15T11:42:01.693Z,34.10
2022-09-15T11:44:28.064Z,33.34
2022-09-15T11:46:54.548Z,32.98
2022-09-15T11:49:21.057Z,32.78
2022-09-15T11:51:47.421Z,32.75
2022-09-15T11:54:13.935Z,32.41
2022-09-15T11:56:40.313Z,32.06
2022-09-15T11:59:11.515Z,32.30
2022-09-15T12:01:38.124Z,32.13
2022-09-15T12:04:04.616Z,32.28
2022-09-15T12:06:31.058Z,32.98
2022-09-15T12:08:57.481Z,32.57
2022-09-15T12:11:23.914Z,33.89
2022-09-15T12:13:50.294Z,33.63
2022-09-15T12:16:16.707Z,32.97
2022-09-15T12:18:46.163Z,32.36
2022-09-15T12:21:13.385Z,32.12
2022-09-15T12:23:39.789Z,32.41
2022-09-15T12:26:06.297Z,32.53
2022-09-15T12:28:32.639Z,32.17
2022-09-15T12:30:59.105Z,32.36
2022-09-15T12:33:25.508Z,32.97
2022-09-15T12:35:52.091Z,33.50
2022-09-15T12:38:18.451Z,33.82
2022-09-15T12:40:44.872Z,33.49
2022-09-15T12:43:11.219Z,34.89
2022-09-15T12:45:37.574Z,34.17
2022-09-15T12:48:03.980Z,33.94
2022-09-15T12:50:30.351Z,33.81
2022-09-15T12:52:57.855Z,33.84
2022-09-15T12:55:24.290Z,33.95
2022-09-15T12:57:50.661Z,33.72
2022-09-15T13:00:17.011Z,34.00
2022-09-15T13:02:43.755Z,34.33
2022-09-15T13:05:10.441Z,34.45
2022-09-15T13:07:36.806Z,34.68
2022-09-15T13:10:03.226Z,34.85
2022-09-15T13:12:29.789Z,34.01
2022-09-15T13:14:56.182Z,35.74
2022-09-15T13:17:22.760Z,35.50
2022-09-15T13:19:49.099Z,35.07
2022-09-15T13:22:15.617Z,35.25
2022-09-15T13:24:42.006Z,35.08
2022-09-15T13:27:08.364Z,34.96
2022-09-15T13:29:34.730Z,34.95
2022-09-15T13:32:01.201Z,34.92
2022-09-15T13:40:00.666Z,35.37
2022-09-15T13:42:27.194Z,35.21
2022-09-15T13:44:53.682Z,35.17
2022-09-15T13:47:20.230Z,36.04
2022-09-15T13:49:46.798Z,34.52
2022-09-15T13:52:13.150Z,34.28
2022-09-15T13:54:39.620Z,34.16
2022-09-15T13:57:06.064Z,34.07
2022-09-15T13:59:32.433Z,33.92
2022-09-15T14:02:00.779Z,33.83
2022-09-15T14:04:27.391Z,33.87
2022-09-15T14:06:57.058Z,34.34
2022-09-15T14:09:26.593Z,34.13
2022-09-15T14:11:52.979Z,34.19
2022-09-15T14:14:19.412Z,33.98
2022-09-15T14:16:45.866Z,34.50
2022-09-15T14:19:12.318Z,35.36
2022-09-15T14:21:38.787Z,34.58
2022-09-15T14:24:05.143Z,34.18
2022-09-15T14:26:31.874Z,34.24
2022-09-15T14:28:58.280Z,34.38
2022-09-15T14:31:24.741Z,34.13
2022-09-15T14:33:51.442Z,33.91
2022-09-15T14:36:18.012Z,33.92
2022-09-15T14:38:44.420Z,33.57
2022-09-15T14:41:10.959Z,33.76
2022-09-15T14:43:37.301Z,34.08
2022-09-15T14:46:11.106Z,33.36
2022-09-15T14:48:37.516Z,34.45
2022-09-15T14:51:03.890Z,34.42
2022-09-15T14:53:30.388Z,34.04
2022-09-15T14:55:56.809Z,33.53
2022-09-15T14:58:23.170Z,33.32
2022-09-15T15:00:49.571Z,33.36
2022-09-15T15:03:18.172Z,33.41
2022-09-15T15:05:44.794Z,33.68
2022-09-15T15:08:11.296Z,33.77
2022-09-15T15:10:37.626Z,34.02
2022-09-15T15:13:04.073Z,33.62
2022-09-15T15:15:30.449Z,33.97
2022-09-15T15:17:56.851Z,34.50
2022-09-15T15:20:23.213Z,35.30
2022-09-15T15:22:49.658Z,34.46
2022-09-15T15:25:16.009Z,34.43
2022-09-15T15:27:42.519Z,34.03
2022-09-15T15:30:08.951Z,34.38
2022-09-15T15:32:35.313Z,34.60
2022-09-15T15:35:01.702Z,34.54
2022-09-15T15:37:28.112Z,34.91
2022-09-15T15:39:55.175Z,35.06
2022-09-15T15:42:21.616Z,34.97
2022-09-15T15:44:48.003Z,34.93
2022-09-15T15:47:14.351Z,35.41
2022-09-15T15:50:02.274Z,35.38
2022-09-15T15:52:27.126Z,36.66
2022-09-15T15:54:53.506Z,35.60
2022-09-15T15:57:19.999Z,35.27
2022-09-15T15:59:46.563Z,35.11
2022-09-15T16:02:13.166Z,35.36
2022-09-15T16:04:39.562Z,35.26
2022-09-15T16:07:05.963Z,35.08
2022-09-15T16:09:32.479Z,34.91
2022-09-15T16:11:58.820Z,35.20
2022-09-15T16:14:25.325Z,35.44
2022-09-15T16:16:51.759Z,35.65
2022-09-15T16:19:18.128Z,35.13
2022-09-15T16:21:44.636Z,36.87
2022-09-15T16:24:11.022Z,36.45
2022-09-15T16:26:37.514Z,35.79
2022-09-15T16:29:03.871Z,34.91
2022-09-15T16:31:30.247Z,34.47
2022-09-15T16:33:56.617Z,34.46
2022-09-15T16:36:23.036Z,34.43
2022-09-15T16:38:49.476Z,34.12
2022-09-15T16:41:15.882Z,34.01
2022-09-15T16:43:42.335Z,33.99
2022-09-15T16:46:08.837Z,34.08
2022-09-15T16:48:35.390Z,34.01
2022-09-15T16:51:21.941Z,33.60
2022-09-15T16:53:48.065Z,35.64
2022-09-15T16:56:14.521Z,34.86
2022-09-15T16:58:41.012Z,34.57
2022-09-15T17:01:07.395Z,33.82
2022-09-15T17:03:33.971Z,33.98
2022-09-15T17:06:00.371Z,33.92
2022-09-15T17:08:26.770Z,33.58
2022-09-15T17:10:53.299Z,33.54
2022-09-15T17:13:19.635Z,33.72
2022-09-15T17:15:46.077Z,33.65
2022-09-15T17:18:12.669Z,33.76
2022-09-15T17:20:39.295Z,33.62
2022-09-15T17:23:05.883Z,33.48
2022-09-15T17:25:32.269Z,34.92
2022-09-15T17:27:58.627Z,34.33
2022-09-15T17:30:24.973Z,33.75
2022-09-15T17:32:51.367Z,33.42
2022-09-15T17:35:17.716Z,33.59
2022-09-15T17:37:44.068Z,33.59
2022-09-15T17:40:10.713Z,33.74
2022-09-15T17:42:37.132Z,33.57
2022-09-15T17:45:03.468Z,33.92
2022-09-15T17:47:29.959Z,33.55
2022-09-15T17:49:56.316Z,33.88
2022-09-15T17:52:22.780Z,33.48
2022-09-15T17:54:49.165Z,33.37
2022-09-15T17:57:15.523Z,34.45
2022-09-15T17:59:41.944Z,34.82
2022-09-15T18:02:08.413Z,33.80
2022-09-15T18:04:34.837Z,33.62
2022-09-15T18:07:01.197Z,33.06
2022-09-15T18:09:27.589Z,33.06
2022-09-15T18:14:25.188Z,32.98
2022-09-15T18:16:51.678Z,32.98
2022-09-15T18:19:18.023Z,33.38
2022-09-15T18:21:44.364Z,32.88
2022-09-15T18:24:10.779Z,33.22
2022-09-15T18:26:37.122Z,33.21
2022-09-15T18:29:03.468Z,33.17
2022-09-15T18:31:29.957Z,31.86
2022-09-15T18:33:56.382Z,33.07
2022-09-15T18:36:22.710Z,33.24
2022-09-15T18:38:51.389Z,32.83
2022-09-15T18:41:17.730Z,33.08
2022-09-15T18:43:44.065Z,32.81
2022-09-15T18:46:10.508Z,32.42
2022-09-15T18:48:36.864Z,33.01
2022-09-15T18:51:03.214Z,32.49
2022-09-15T18:53:29.681Z,32.76
2022-09-15T18:55:56.009Z,32.68
2022-09-15T18:58:22.345Z,32.74
2022-09-15T19:00:48.736Z,32.49
2022-09-15T19:03:15.065Z,32.56
2022-09-15T19:05:41.461Z,32.69
2022-09-15T19:08:07.979Z,32.49
2022-09-15T19:10:34.334Z,32.39
2022-09-15T19:13:00.675Z,32.96
2022-09-15T19:15:27.045Z,32.59
2022-09-15T19:17:53.453Z,32.24
2022-09-15T19:20:19.806Z,32.25
2022-09-15T19:22:46.441Z,32.01
2022-09-15T19:25:12.834Z,31.97
2022-09-15T19:27:39.174Z,31.69
2022-09-15T19:30:05.585Z,31.80
2022-09-15T19:32:31.931Z,31.58
2022-09-15T19:34:58.270Z,32.08
2022-09-15T19:37:24.628Z,31.98
2022-09-15T19:39:51.033Z,31.91
2022-09-15T19:42:17.461Z,31.75
2022-09-15T19:44:43.881Z,32.10
2022-09-15T19:47:10.231Z,31.31
2022-09-15T19:49:36.595Z,32.50
2022-09-15T19:52:03.112Z,32.19
2022-09-15T19:54:29.469Z,31.73
2022-09-15T19:56:55.815Z,31.93
2022-09-15T19:59:22.198Z,31.74
2022-09-15T20:01:48.540Z,31.67
2022-09-15T20:04:14.897Z,31.65
2022-09-15T20:06:41.355Z,31.57
2022-09-15T20:09:07.683Z,31.58
2022-09-15T20:11:34.016Z,31.89
2022-09-15T20:14:00.492Z,31.60
2022-09-15T20:16:26.823Z,32.00
2022-09-15T20:18:53.152Z,31.76
2022-09-15T20:21:32.491Z,31.41
2022-09-15T20:24:05.401Z,30.77
2022-09-15T20:26:31.949Z,32.11
2022-09-15T20:28:58.309Z,32.07
2022-09-15T20:31:24.668Z,31.61
2022-09-15T20:33:51.038Z,31.75
2022-09-15T20:36:17.377Z,31.48
2022-09-15T20:38:43.732Z,31.25
2022-09-15T20:41:10.208Z,31.61
2022-09-15T20:43:36.537Z,31.34
2022-09-15T20:46:02.916Z,31.58
2022-09-15T20:48:29.302Z,31.42
2022-09-15T20:50:55.660Z,31.74
2022-09-15T20:53:22.009Z,31.48
2022-09-15T20:55:48.492Z,31.42
2022-09-15T20:58:14.833Z,31.48
2022-09-15T21:00:41.203Z,31.68
2022-09-15T21:03:07.596Z,30.71
2022-09-15T21:05:33.945Z,32.00
2022-09-15T21:08:00.287Z,31.80
2022-09-15T21:10:26.923Z,31.40
2022-09-15T21:12:53.278Z,31.12
2022-09-15T21:15:19.627Z,31.40
2022-09-15T21:17:46.087Z,31.23
2022-09-15T21:20:12.407Z,30.96
2022-09-15T21:22:38.748Z,30.95
2022-09-15T21:25:05.108Z,30.93
2022-09-15T21:27:31.449Z,31.22
2022-09-15T21:29:57.836Z,31.02
2022-09-15T21:32:24.226Z,31.45
2022-09-15T21:34:50.583Z,31.23
2022-09-15T21:37:16.905Z,31.22
2022-09-15T21:39:43.384Z,31.06
2022-09-15T21:42:09.798Z,30.61
2022-09-15T21:44:36.151Z,31.83
2022-09-15T21:47:02.553Z,31.63
2022-09-15T21:49:28.905Z,31.43
2022-09-15T21:51:55.243Z,31.28
2022-09-15T21:54:21.726Z,31.23
2022-09-15T21:56:48.063Z,31.04
2022-09-15T21:59:17.471Z,30.78
2022-09-15T22:01:43.876Z,30.70
2022-09-15T22:04:10.271Z,31.38
2022-09-15T22:06:36.618Z,31.03
2022-09-15T22:09:03.050Z,31.09
2022-09-15T22:11:29.421Z,31.34
2022-09-15T22:13:55.775Z,30.73
2022-09-15T22:16:22.184Z,30.94
2022-09-15T22:18:48.576Z,30.58
2022-09-15T22:21:15.035Z,31.31
2022-09-15T22:23:41.545Z,31.46
2022-09-15T22:26:07.887Z,31.12
2022-09-15T22:28:34.281Z,31.15
2022-09-15T22:31:00.667Z,31.00
2022-09-15T22:33:26.993Z,30.85
2022-09-15T22:35:53.349Z,30.64
2022-09-15T22:38:19.736Z,30.75
2022-09-15T22:40:46.100Z,30.90
2022-09-15T22:43:12.485Z,30.87
2022-09-15T22:45:38.921Z,30.97
2022-09-15T22:48:05.264Z,31.07
2022-09-15T22:50:31.597Z,30.95
2022-09-15T22:52:57.965Z,30.82
2022-09-15T22:55:24.304Z,30.99
2022-09-15T22:57:50.654Z,30.35
2022-09-15T23:00:17.036Z,31.27
2022-09-15T23:02:43.371Z,31.35
2022-09-15T23:05:09.703Z,31.00
2022-09-15T23:07:36.057Z,30.85
2022-09-15T23:10:02.418Z,30.81
2022-09-15T23:12:28.793Z,30.77
2022-09-15T23:14:55.155Z,30.55
2022-09-15T23:17:21.489Z,30.65
2022-09-15T23:19:47.851Z,30.74
2022-09-15T23:22:14.312Z,30.85
2022-09-15T23:24:40.638Z,30.76
2022-09-15T23:27:06.987Z,30.84
2022-09-15T23:29:33.358Z,30.70
2022-09-15T23:31:59.754Z,30.57
2022-09-15T23:34:26.082Z,30.77
2022-09-15T23:36:52.460Z,30.68
2022-09-15T23:39:18.791Z,31.25
2022-09-15T23:41:45.146Z,31.42
2022-09-15T23:44:11.636Z,30.87
2022-09-15T23:46:38.016Z,30.64
2022-09-15T23:49:04.406Z,30.72
2022-09-15T23:51:30.773Z,30.69
2022-09-15T23:53:57.133Z,30.43
2022-09-15T23:56:23.469Z,30.43
2022-09-15T23:58:49.834Z,30.63
